Fennville, MI (49408)

9:18 PM EDT on April 30, 2017 (GMT -0400)
Windjammer of Saugatuck | | Change Station

Elev 574 ft 42.65 °N, 86.20 °W | Updated 13 seconds ago

Rain
Rain
45.5 °F
Feels Like 42 °F
N
6.7
Wind Variable Wind from East
Gusts 7.4 mph

Today
High -- | Low -- °F
--% Chance of Precip.
Yesterday
High -- | Low -- °F
Precip. -- in
Pressure 29.78 in
Visibility 9.0 miles
Clouds Overcast 500 ft
Windchill 42 °F
Dew Point 45 °F
Humidity 97%
Rainfall 0.83 in
Snow Depth Not available.
6:40 AM 8:43 PM
Waxing Crescent, 28% visible
METAR KBIV 010053Z AUTO 08011KT 9SM -RA OVC005 07/06 A2976 RMK AO2 RAB00 SLP082 P0002 T00670056
Pressure 29.78 in
Visibility 9.0 miles
Clouds Overcast 500 ft
Windchill 42 °F
Dew Point 45 °F
Humidity 97%
Rainfall 0.83 in
Snow Depth Not available.
6:40 AM 8:43 PM
Waxing Crescent, 28% visible
METAR KBIV 010053Z AUTO 08011KT 9SM -RA OVC005 07/06 A2976 RMK AO2 RAB00 SLP082 P0002 T00670056

Get Severe Weather Alerts

Thanks for signing up!

Be on the lookout for a verification email in your inbox.

You'll start receiving the daily forecast at 8 AM.

×

10-Day Weather Forecast

Almanac

Astronomy

Apr. 30, 2017 Rise Set
Actual Time
Civil Twilight
Nautical Twilight
Astronomical Twilight
Moon
Length of Visible Light
Length of Day
Tomorrow will be .
, % of the Moon is Illuminated

Today's Extremes

State Highs State Lows

Community

WunderPhotos

WunderBlog® & News

Nearby

Air Quality

  Air Quality AQ Index Pollutant
Not available.

Snow Depth

Station Depth Elevation

Earthquake Activity

City Distance Mag. Time & Date
Minimum magnitude displayed is 2.5.

Coastal Water Temperatures

Place Temperature

Stations

Nearby Weather Stations

Station Location Temp. Windchill Dew Point Humidity Wind Precip. Elev Updated Type
                   

Watches & Warnings

There are currently no watches in effect.